Time;durP1;ratioP1;P1;durP2;ratioP2;P2;SDS_P1;SDS_P2;PMS_P1;PMS_P2;Temp;Humidity;BMP_temperature;BMP_pressure;BME280_temperature;BME280_humidity;BME280_pressure;Samples;Min_cycle;Max_cycle;Signal;HPM_P1;HPM_P2
2021/05/23 00:00:36;;;;;;;14.20;7.10;;;;;;;14.31;62.31;99746.64;1712728;83;21682;-74
2021/05/23 00:03:07;;;;;;;18.30;7.67;;;;;;;14.34;60.38;99745.12;1726419;83;21312;-72
2021/05/23 00:05:38;;;;;;;10.55;6.40;;;;;;;14.39;63.00;99737.75;1685110;85;22341;-72
2021/05/23 00:08:12;;;;;;;13.72;6.70;;;;;;;14.41;61.88;99745.14;1683832;83;21093;-71
2021/05/23 00:10:44;;;;;;;9.08;5.58;;;;;;;14.44;60.40;99746.27;1657197;86;21097;-71
2021/05/23 00:13:12;;;;;;;8.00;4.55;;;;;;;14.49;63.81;99748.64;1698686;84;21144;-72
2021/05/23 00:15:57;;;;;;;10.53;4.08;;;;;;;14.52;60.21;99752.94;1692434;78;20955;-76
2021/05/23 00:18:24;;;;;;;5.65;3.37;;;;;;;14.58;60.52;99752.11;1704121;82;21047;-74
2021/05/23 00:20:52;;;;;;;4.97;3.25;;;;;;;14.63;62.62;99753.16;1696262;84;21142;-74
2021/05/23 00:23:20;;;;;;;5.25;3.27;;;;;;;14.66;59.01;99746.38;1696062;84;21078;-74
2021/05/23 00:25:49;;;;;;;5.62;3.22;;;;;;;14.69;61.61;99748.83;1695866;84;21103;-75
2021/05/23 00:28:16;;;;;;;5.70;2.90;;;;;;;14.73;61.21;99753.00;1695793;84;21091;-75
2021/05/23 00:30:43;;;;;;;8.08;3.52;;;;;;;14.74;59.43;99767.95;1694488;83;20985;-72
2021/05/23 00:33:11;;;;;;;6.10;3.27;;;;;;;14.76;63.62;99769.19;1691844;84;21075;-73
2021/05/23 00:35:38;;;;;;;5.47;3.00;;;;;;;14.76;60.56;99777.98;1691851;84;21454;-72
2021/05/23 00:38:06;;;;;;;10.48;3.37;;;;;;;14.77;62.54;99766.46;1691862;84;21115;-73
2021/05/23 00:40:35;;;;;;;6.05;3.42;;;;;;;14.78;62.26;99769.48;1691797;84;21213;-72
2021/05/23 00:43:12;;;;;;;6.53;3.10;;;;;;;14.77;62.03;99769.11;1691824;84;21078;-72
2021/05/23 00:47:28;;;;;;;10.58;3.45;;;;;;;14.79;62.74;99767.22;1727108;77;23367;-77
2021/05/23 00:49:55;;;;;;;3.75;2.85;;;;;;;14.70;63.39;99774.41;1653188;86;21159;-78
2021/05/23 00:52:22;;;;;;;9.75;3.08;;;;;;;14.66;65.97;99780.83;1652938;85;21630;-78
2021/05/23 00:54:49;;;;;;;3.77;3.12;;;;;;;14.64;66.02;99785.36;1676410;85;21108;-77
2021/05/23 00:57:17;;;;;;;5.28;3.17;;;;;;;14.56;68.63;99774.34;1652759;85;21097;-76
2021/05/23 00:59:43;;;;;;;7.65;2.72;;;;;;;14.48;67.97;99778.27;1675609;85;21279;-77
2021/05/23 01:02:19;;;;;;;5.30;2.80;;;;;;;14.43;69.53;99780.34;1670335;80;21809;-74
2021/05/23 01:04:46;;;;;;;9.35;2.80;;;;;;;14.36;70.72;99786.95;1665793;86;21281;-74
2021/05/23 01:07:13;;;;;;;7.42;2.87;;;;;;;14.30;71.44;99779.34;1672197;83;21149;-74
2021/05/23 01:09:42;;;;;;;4.40;3.27;;;;;;;14.23;73.21;99787.27;1693221;81;21742;-73
2021/05/23 01:12:29;;;;;;;9.35;3.27;;;;;;;14.16;73.55;99781.47;1693128;83;21112;-73
2021/05/23 01:14:59;;;;;;;5.65;3.40;;;;;;;14.10;74.25;99786.25;1693184;81;21659;-73
2021/05/23 01:17:39;;;;;;;4.85;3.20;;;;;;;14.00;75.39;99785.45;1729995;81;21260;-77
2021/05/23 01:20:20;;;;;;;5.40;3.00;;;;;;;13.92;76.04;99786.38;1772324;80;21043;-77
2021/05/23 01:23:11;;;;;;;7.17;3.33;;;;;;;13.81;77.07;99782.15;1778311;80;21573;-77
2021/05/23 01:25:39;;;;;;;6.00;3.02;;;;;;;13.71;78.17;99779.61;1782191;80;21550;-77
2021/05/23 01:28:07;;;;;;;3.95;3.10;;;;;;;13.60;79.28;99782.40;1742374;82;21102;-76
2021/05/23 01:30:55;;;;;;;5.40;3.00;;;;;;;13.53;79.92;99783.68;1729271;82;21117;-80
2021/05/23 01:33:22;;;;;;;6.25;3.60;;;;;;;13.47;80.86;99786.64;1726074;83;21141;-74
2021/05/23 01:35:57;;;;;;;5.75;2.95;;;;;;;13.43;81.65;99793.03;1726266;83;21092;-74
2021/05/23 01:38:24;;;;;;;5.62;3.08;;;;;;;13.40;82.31;99790.56;1726166;83;21153;-74
2021/05/23 01:40:56;;;;;;;6.35;2.65;;;;;;;13.36;82.76;99789.02;1726515;83;21060;-74
2021/05/23 01:43:23;;;;;;;8.03;3.67;;;;;;;13.31;83.03;99796.34;1726389;82;21169;-73
2021/05/23 01:45:54;;;;;;;4.97;3.22;;;;;;;13.33;84.04;99803.73;1726685;81;21065;-72
2021/05/23 01:48:21;;;;;;;5.22;2.98;;;;;;;13.32;84.15;99802.01;1672074;84;21631;-80
2021/05/23 01:50:49;;;;;;;3.90;3.05;;;;;;;13.31;85.02;99810.42;1677989;85;21169;-78
2021/05/23 01:53:17;;;;;;;4.12;2.95;;;;;;;13.30;85.90;99818.45;1678143;85;21149;-79
2021/05/23 01:55:45;;;;;;;6.75;3.10;;;;;;;13.29;85.87;99816.73;1678085;85;21106;-79
2021/05/23 01:58:13;;;;;;;6.05;3.17;;;;;;;13.25;86.84;99809.41;1677371;85;21145;-80
2021/05/23 02:03:41;;;;;;;7.17;3.00;;;;;;;13.21;86.43;99805.22;1685630;84;21082;-73
2021/05/23 02:06:08;;;;;;;7.30;3.12;;;;;;;13.18;86.94;99812.84;1736370;82;21090;-72
2021/05/23 02:08:37;;;;;;;4.87;2.75;;;;;;;13.14;87.09;99811.77;1720958;82;21427;-74
2021/05/23 02:11:07;;;;;;;3.75;2.80;;;;;;;13.11;87.97;99815.43;1721072;82;21188;-72
2021/05/23 02:13:38;;;;;;;5.40;2.92;;;;;;;13.09;88.96;99814.66;1721283;82;21108;-72
2021/05/23 02:16:11;;;;;;;9.10;3.17;;;;;;;13.07;88.96;99813.88;1720176;78;21115;-79
2021/05/23 02:18:39;;;;;;;5.42;2.87;;;;;;;13.06;89.88;99824.05;1668972;85;21550;-79
2021/05/23 02:21:07;;;;;;;5.25;3.22;;;;;;;13.01;90.35;99828.72;1665998;86;21611;-79
2021/05/23 02:23:34;;;;;;;8.75;3.30;;;;;;;12.96;90.87;99829.44;1665678;86;21112;-80
2021/05/23 02:26:01;;;;;;;5.22;3.47;;;;;;;12.94;91.39;99827.34;1666037;86;21144;-82
2021/05/23 02:28:28;;;;;;;4.95;3.83;;;;;;;12.91;91.50;99838.08;1685888;84;22162;-79
2021/05/23 02:31:17;;;;;;;6.05;3.40;;;;;;;12.90;92.23;99842.95;1688709;84;21118;-80
2021/05/23 02:33:44;;;;;;;4.35;3.08;;;;;;;12.86;92.58;99841.39;1707945;83;21871;-73
2021/05/23 02:36:11;;;;;;;6.55;3.60;;;;;;;12.80;92.82;99842.10;1733107;82;21099;-73
2021/05/23 02:38:39;;;;;;;5.92;3.60;;;;;;;12.76;93.27;99842.34;1733030;82;22073;-70
2021/05/23 02:41:06;;;;;;;5.00;3.45;;;;;;;12.73;93.30;99848.63;1733046;82;21135;-70
2021/05/23 02:43:33;;;;;;;5.75;3.50;;;;;;;12.73;93.61;99848.63;1733022;82;21582;-71
2021/05/23 02:46:13;;;;;;;7.30;3.85;;;;;;;12.74;94.21;99849.01;1733631;82;21106;-73
2021/05/23 02:48:40;;;;;;;8.73;4.60;;;;;;;12.76;93.94;99859.04;1732105;82;21442;-76
2021/05/23 02:51:07;;;;;;;8.88;5.28;;;;;;;12.78;94.48;99855.01;1732887;82;21088;-74
2021/05/23 02:53:34;;;;;;;12.20;6.78;;;;;;;12.80;94.79;99855.79;1732521;82;21152;-76
2021/05/23 02:56:02;;;;;;;12.18;7.15;;;;;;;12.78;94.09;99863.78;1732995;82;21076;-76
2021/05/23 02:58:29;;;;;;;11.50;6.40;;;;;;;12.76;94.63;99859.04;1732881;82;21835;-75
2021/05/23 03:00:56;;;;;;;11.95;6.10;;;;;;;12.71;94.72;99855.78;1733441;82;21027;-76
2021/05/23 03:03:23;;;;;;;8.83;4.65;;;;;;;12.68;94.63;99863.87;1671404;80;21139;-75
2021/05/23 03:05:50;;;;;;;9.25;4.92;;;;;;;12.70;95.23;99875.22;1656990;86;21145;-74
2021/05/23 03:08:17;;;;;;;10.25;5.20;;;;;;;12.71;95.18;99870.78;1654556;86;21561;-73
2021/05/23 03:10:52;;;;;;;6.67;4.62;;;;;;;12.73;95.35;99864.48;1653582;86;21413;-71
2021/05/23 03:13:20;;;;;;;8.58;5.92;;;;;;;12.73;95.29;99856.56;1654578;86;21145;-70
2021/05/23 03:15:48;;;;;;;11.28;5.03;;;;;;;12.77;95.01;99855.48;1654654;86;21090;-70
2021/05/23 03:18:16;;;;;;;6.10;5.03;;;;;;;12.80;94.85;99857.96;1623712;85;21099;-78
2021/05/23 03:20:44;;;;;;;10.60;6.83;;;;;;;12.84;94.73;99865.72;1693153;81;21025;-78
2021/05/23 03:23:12;;;;;;;10.63;7.45;;;;;;;12.87;94.98;99868.23;1693270;81;21310;-77
2021/05/23 03:25:38;;;;;;;12.70;5.97;;;;;;;12.90;95.55;99871.55;1690741;81;21163;-77
2021/05/23 03:28:06;;;;;;;13.18;6.08;;;;;;;12.88;94.77;99864.64;1687808;83;21068;-79
2021/05/23 03:30:41;;;;;;;7.87;6.12;;;;;;;12.90;95.16;99864.09;1687848;84;21156;-78
2021/05/23 03:33:09;;;;;;;8.40;5.87;;;;;;;12.90;95.10;99869.39;1702786;79;22339;-69
2021/05/23 03:35:36;;;;;;;7.70;5.50;;;;;;;12.93;94.98;99867.45;1694095;84;21115;-70
2021/05/23 03:38:04;;;;;;;7.35;5.33;;;;;;;12.97;95.53;99876.91;1694150;84;21099;-70
2021/05/23 03:40:31;;;;;;;9.68;5.67;;;;;;;12.95;94.88;99876.61;1694068;83;21084;-70
2021/05/23 03:42:59;;;;;;;12.90;4.83;;;;;;;12.99;95.01;99883.45;1708044;83;21079;-72
2021/05/23 03:45:26;;;;;;;7.90;5.28;;;;;;;12.99;95.44;99881.66;1713129;83;21598;-70
2021/05/23 03:47:54;;;;;;;9.83;5.33;;;;;;;13.02;95.21;99879.33;1736545;80;21327;-68
2021/05/23 03:50:23;;;;;;;16.77;6.28;;;;;;;13.05;95.49;99885.80;1753346;81;21115;-69
2021/05/23 03:52:52;;;;;;;11.85;6.33;;;;;;;13.08;95.30;99879.49;1753382;81;21035;-70
2021/05/23 03:55:20;;;;;;;9.95;6.12;;;;;;;13.11;94.84;99880.64;1753386;81;21107;-73
2021/05/23 03:57:48;;;;;;;8.65;5.70;;;;;;;13.17;95.01;99877.22;1753292;81;21170;-69
2021/05/23 04:00:17;;;;;;;7.20;5.55;;;;;;;13.25;94.75;99882.58;1753237;81;21110;-72
2021/05/23 04:02:48;;;;;;;7.78;5.17;;;;;;;13.32;95.17;99889.28;1696466;78;21160;-72
2021/05/23 04:05:15;;;;;;;11.18;6.22;;;;;;;13.39;95.13;99899.96;1602922;87;21159;-72
2021/05/23 04:07:42;;;;;;;12.47;6.75;;;;;;;13.43;94.47;99890.46;1596555;89;21087;-71
2021/05/23 04:10:13;;;;;;;11.57;5.37;;;;;;;13.53;94.43;99888.66;1596574;89;21139;-71
2021/05/23 04:12:42;;;;;;;7.10;5.95;;;;;;;13.61;93.86;99886.44;1596704;89;21175;-70
2021/05/23 04:15:10;;;;;;;10.60;5.85;;;;;;;13.68;92.73;99882.52;1596848;89;21151;-72
2021/05/23 04:17:37;;;;;;;8.60;5.37;;;;;;;13.83;92.98;99891.44;1617411;80;55186;-71
2021/05/23 04:20:11;;;;;;;6.35;5.12;;;;;;;14.05;92.27;99893.27;1626644;88;21701;-72
2021/05/23 04:22:38;;;;;;;8.38;4.45;;;;;;;14.43;91.76;99902.22;1646233;86;21159;-81
2021/05/23 04:25:08;;;;;;;6.08;4.25;;;;;;;14.82;90.01;99910.18;1650537;86;21115;-85
2021/05/23 04:27:45;;;;;;;6.55;3.95;;;;;;;15.25;85.57;99907.66;1657660;86;21631;-80
2021/05/23 04:30:15;;;;;;;5.60;3.05;;;;;;;15.52;83.89;99910.90;1653043;86;21119;-72
2021/05/23 04:32:42;;;;;;;3.90;3.10;;;;;;;15.82;84.09;99909.99;1671601;82;21126;-69
2021/05/23 04:35:11;;;;;;;3.80;2.80;;;;;;;16.10;80.48;99912.64;1676178;84;21592;-69
2021/05/23 04:37:38;;;;;;;7.95;2.80;;;;;;;16.34;78.96;99921.31;1681414;84;21645;-69
2021/05/23 04:40:07;;;;;;;2.70;2.00;;;;;;;16.56;77.06;99922.97;1681751;84;21143;-69
2021/05/23 04:42:34;;;;;;;2.85;2.02;;;;;;;16.73;74.36;99932.97;1673736;84;21101;-71
2021/05/23 04:45:01;;;;;;;4.15;2.30;;;;;;;16.81;74.08;99932.00;1681869;84;21620;-71
2021/05/23 04:47:30;;;;;;;2.62;1.90;;;;;;;17.01;71.73;99943.98;1691017;80;21050;-71
2021/05/23 04:49:56;;;;;;;3.20;2.25;;;;;;;17.28;70.96;99941.28;1733648;82;21168;-70
2021/05/23 04:52:23;;;;;;;4.80;1.82;;;;;;;17.52;68.87;99939.22;1733577;82;21073;-71
2021/05/23 04:54:51;;;;;;;3.27;1.90;;;;;;;17.47;65.90;99933.37;1733437;82;21073;-69
2021/05/23 04:57:20;;;;;;;5.30;2.00;;;;;;;17.42;67.18;99940.83;1733661;82;21236;-71
2021/05/23 04:59:50;;;;;;;6.47;1.95;;;;;;;17.47;66.77;99932.89;1732979;82;21618;-71
2021/05/23 05:02:16;;;;;;;3.20;1.90;;;;;;;17.52;64.96;99932.56;1730305;81;21487;-70
2021/05/23 05:04:43;;;;;;;4.50;2.10;;;;;;;17.45;64.06;99931.29;1691678;83;21131;-68
2021/05/23 05:07:10;;;;;;;4.30;1.77;;;;;;;17.45;64.52;99932.63;1692424;84;21099;-70
2021/05/23 05:09:37;;;;;;;3.87;1.70;;;;;;;17.71;64.95;99936.97;1692240;84;21100;-69
2021/05/23 05:12:06;;;;;;;2.60;1.60;;;;;;;18.05;63.62;99933.31;1692460;84;21112;-70
2021/05/23 05:14:34;;;;;;;5.92;1.65;;;;;;;18.22;60.96;99933.42;1692328;84;21788;-71
2021/05/23 05:17:01;;;;;;;7.47;1.67;;;;;;;18.29;60.22;99936.50;1690991;80;21032;-73
2021/05/23 05:19:28;;;;;;;1.92;1.47;;;;;;;18.45;59.04;99929.12;1605037;87;21158;-72
2021/05/23 05:21:55;;;;;;;2.72;1.42;;;;;;;18.73;59.01;99930.60;1605333;89;21123;-71
2021/05/23 05:24:21;;;;;;;3.22;1.50;;;;;;;19.03;58.05;99931.48;1605198;89;21103;-74
2021/05/23 05:26:48;;;;;;;2.83;1.60;;;;;;;19.32;55.42;99937.75;1605223;89;21830;-71
2021/05/23 05:29:17;;;;;;;7.28;1.45;;;;;;;19.54;55.29;99932.11;1611801;87;21174;-72
2021/05/23 05:32:06;;;;;;;1.57;1.17;;;;;;;19.65;52.55;99934.80;1607881;88;21100;-71
2021/05/23 05:34:33;;;;;;;2.83;1.55;;;;;;;19.72;52.78;99933.88;1713993;83;21074;-69
2021/05/23 05:37:00;;;;;;;2.85;1.10;;;;;;;20.03;52.91;99935.80;1724174;83;21102;-71
2021/05/23 05:39:27;;;;;;;2.72;1.10;;;;;;;20.31;49.39;99930.45;1760370;81;21087;-70
2021/05/23 05:41:54;;;;;;;1.90;1.45;;;;;;;20.52;49.46;99925.64;1760582;80;21064;-71
2021/05/23 05:44:21;;;;;;;2.85;1.20;;;;;;;20.71;49.52;99936.58;1759996;80;21099;-70
2021/05/23 05:47:01;;;;;;;2.67;1.10;;;;;;;20.77;47.42;99933.02;1760791;80;21154;-70
2021/05/23 05:49:28;;;;;;;2.72;1.20;;;;;;;20.81;49.06;99929.97;1732412;81;29352;-72
2021/05/23 05:51:55;;;;;;;5.12;1.30;;;;;;;21.00;49.10;99936.46;1710830;82;21246;-72
2021/05/23 05:54:23;;;;;;;2.12;1.65;;;;;;;21.34;47.69;99939.83;1712731;81;21123;-76
2021/05/23 05:56:50;;;;;;;1.92;1.10;;;;;;;21.64;45.76;99940.89;1704003;82;21067;-72
2021/05/23 05:59:16;;;;;;;1.67;1.20;;;;;;;21.74;44.02;99950.69;1710136;82;21099;-73
2021/05/23 06:01:43;;;;;;;2.90;1.37;;;;;;;21.77;43.72;99946.89;1706625;82;21138;-72
2021/05/23 06:04:10;;;;;;;2.70;1.50;;;;;;;21.48;44.72;99951.58;1758251;79;21087;-70
2021/05/23 06:06:37;;;;;;;2.75;1.60;;;;;;;21.37;45.02;99963.66;1754380;80;21144;-70
2021/05/23 06:09:06;;;;;;;2.65;1.45;;;;;;;21.07;45.46;99958.59;1756484;80;21056;-70
2021/05/23 06:11:33;;;;;;;3.05;1.37;;;;;;;21.04;45.32;99967.36;1750648;80;21096;-71
2021/05/23 06:14:00;;;;;;;2.25;1.72;;;;;;;20.98;45.62;99971.41;1761941;80;21027;-71
2021/05/23 06:16:26;;;;;;;3.02;1.42;;;;;;;21.08;47.42;99970.99;1781058;80;21067;-73
2021/05/23 06:18:54;;;;;;;2.47;1.50;;;;;;;21.36;46.39;99964.66;1733140;80;21080;-73
2021/05/23 06:21:21;;;;;;;3.60;1.50;;;;;;;21.38;46.47;99969.39;1678480;85;21560;-72
2021/05/23 06:23:48;;;;;;;3.52;1.42;;;;;;;21.15;47.52;99973.52;1675614;85;21103;-73
2021/05/23 06:26:15;;;;;;;6.58;2.42;;;;;;;21.15;45.98;99980.70;1668965;85;21863;-73
2021/05/23 06:28:42;;;;;;;3.33;1.67;;;;;;;21.15;47.40;99982.89;1678328;85;21653;-73
2021/05/23 06:31:11;;;;;;;2.47;1.57;;;;;;;21.28;45.51;99977.83;1667051;85;21726;-73
2021/05/23 06:33:37;;;;;;;5.35;1.30;;;;;;;21.57;44.80;99973.56;1656613;82;21137;-75
2021/05/23 06:36:06;;;;;;;1.90;1.62;;;;;;;21.77;44.39;99963.82;1628781;87;21554;-75
2021/05/23 06:38:35;;;;;;;1.60;1.40;;;;;;;21.79;43.46;99985.14;1655092;85;21122;-75
2021/05/23 06:41:03;;;;;;;1.30;1.00;;;;;;;21.96;44.89;99980.48;1643127;87;21126;-75
2021/05/23 06:43:30;;;;;;;3.92;2.15;;;;;;;22.13;41.41;99982.19;1624902;87;21633;-74
2021/05/23 06:45:57;;;;;;;2.25;1.40;;;;;;;22.28;40.59;99975.51;1642507;85;21079;-76
2021/05/23 06:48:26;;;;;;;3.02;1.50;;;;;;;22.57;42.45;99977.45;1639282;81;21477;-73
2021/05/23 06:50:54;;;;;;;2.90;1.30;;;;;;;22.76;40.34;99978.81;1628385;85;26157;-72
2021/05/23 06:53:21;;;;;;;3.27;1.57;;;;;;;22.64;41.75;99971.88;1559614;90;21642;-72
2021/05/23 06:55:48;;;;;;;6.30;1.20;;;;;;;22.39;42.13;99976.75;1551018;90;21177;-73
2021/05/23 06:58:15;;;;;;;2.12;1.35;;;;;;;22.09;41.96;99986.14;1527341;93;21219;-73
2021/05/23 07:00:42;;;;;;;1.37;1.27;;;;;;;21.84;43.47;99986.08;1586955;89;21657;-73
2021/05/23 07:03:08;;;;;;;1.45;1.17;;;;;;;21.89;41.54;99979.33;1639838;81;21102;-76
2021/05/23 07:05:37;;;;;;;2.65;1.20;;;;;;;22.12;40.83;99984.52;1719344;83;21099;-74
2021/05/23 07:08:06;;;;;;;1.92;1.35;;;;;;;22.32;41.71;99984.98;1717774;83;21082;-75
2021/05/23 07:10:33;;;;;;;5.00;1.32;;;;;;;22.63;40.42;99978.22;1687767;83;21246;-73
2021/05/23 07:13:00;;;;;;;1.55;1.32;;;;;;;22.90;40.13;99978.06;1698990;83;21077;-77
2021/05/23 07:15:27;;;;;;;1.72;1.20;;;;;;;22.93;38.97;99988.51;1686215;83;21079;-74
2021/05/23 07:17:57;;;;;;;4.20;1.42;;;;;;;22.59;38.90;99987.52;1675070;83;21088;-75
2021/05/23 07:20:23;;;;;;;2.37;1.20;;;;;;;22.43;41.18;99984.52;1657488;84;21124;-73
2021/05/23 07:22:50;;;;;;;2.20;1.30;;;;;;;22.58;39.73;99982.66;1657196;86;21155;-74
2021/05/23 07:25:19;;;;;;;4.85;1.30;;;;;;;22.83;38.75;99980.45;1649356;86;21097;-73
2021/05/23 07:27:47;;;;;;;6.00;1.80;;;;;;;23.05;38.22;99982.04;1673753;85;21158;-72
2021/05/23 07:30:16;;;;;;;4.60;1.20;;;;;;;23.22;36.71;99992.09;1675820;85;21689;-72
2021/05/23 07:32:43;;;;;;;2.50;1.20;;;;;;;23.45;37.22;99986.43;1664016;83;20972;-75
2021/05/23 07:35:11;;;;;;;5.87;1.30;;;;;;;23.73;36.30;99983.84;1624126;87;21148;-76
2021/05/23 07:37:40;;;;;;;4.90;1.25;;;;;;;23.78;36.34;99982.42;1609270;87;21120;-76
2021/05/23 07:40:09;;;;;;;2.65;1.10;;;;;;;23.69;36.89;99985.11;1626802;87;21103;-77
2021/05/23 07:42:37;;;;;;;2.47;1.22;;;;;;;23.69;35.19;99974.36;1625595;87;21099;-75
2021/05/23 07:45:06;;;;;;;3.90;1.70;;;;;;;23.88;34.87;99981.08;1602031;88;21117;-75
2021/05/23 07:47:33;;;;;;;4.65;1.30;;;;;;;24.25;34.51;99980.23;1621578;83;21151;-70
2021/05/23 07:50:05;;;;;;;3.50;1.25;;;;;;;24.75;33.53;99983.86;1610925;88;21114;-72
2021/05/23 07:52:32;;;;;;;3.60;1.27;;;;;;;25.10;33.88;99987.60;1560203;85;21133;-72
2021/05/23 07:54:59;;;;;;;3.98;1.62;;;;;;;25.30;32.06;99983.75;1551748;91;21389;-72
2021/05/23 07:57:27;;;;;;;2.02;1.20;;;;;;;25.52;31.23;99984.28;1526468;93;22228;-72
2021/05/23 07:59:56;;;;;;;2.02;0.90;;;;;;;25.61;31.98;99975.25;1566067;91;21139;-71
2021/05/23 08:02:23;;;;;;;2.10;1.27;;;;;;;25.53;30.43;99981.41;1565470;91;21120;-72
2021/05/23 08:04:50;;;;;;;4.90;1.17;;;;;;;25.44;32.35;99984.20;1620346;85;21112;-74
2021/05/23 08:07:17;;;;;;;2.98;1.50;;;;;;;25.30;29.83;99985.60;1679231;85;21628;-76
2021/05/23 08:09:44;;;;;;;1.95;1.20;;;;;;;25.38;30.41;99978.11;1667706;85;21113;-77
2021/05/23 08:12:11;;;;;;;4.85;1.80;;;;;;;25.66;30.87;99981.00;1669477;85;21093;-75
2021/05/23 08:14:40;;;;;;;2.58;1.10;;;;;;;25.90;28.61;99980.33;1664713;84;21125;-75
2021/05/23 08:17:07;;;;;;;3.17;1.40;;;;;;;25.81;30.20;99968.28;1668141;85;21117;-75
2021/05/23 08:19:34;;;;;;;5.42;1.30;;;;;;;25.77;28.73;99984.43;1680746;82;21156;-73
2021/05/23 08:22:01;;;;;;;2.47;1.00;;;;;;;25.60;28.32;99981.62;1672358;85;21170;-74
2021/05/23 08:24:30;;;;;;;2.50;1.10;;;;;;;25.28;29.62;99983.09;1671306;84;21123;-73
2021/05/23 08:26:57;;;;;;;2.12;1.30;;;;;;;25.06;29.79;99984.86;1671679;84;21250;-74
2021/05/23 08:29:25;;;;;;;3.10;1.12;;;;;;;24.87;30.31;99990.74;1668523;85;21170;-75
2021/05/23 08:31:52;;;;;;;4.72;1.57;;;;;;;24.37;30.80;99996.52;1673696;85;21100;-72
2021/05/23 08:34:24;;;;;;;4.20;1.45;;;;;;;24.21;30.54;99999.01;1662226;83;21715;-76
2021/05/23 08:36:51;;;;;;;;;;;;;;;24.34;32.05;99995.48;1647359;86;21066;-75
2021/05/23 08:39:19;;;;;;;4.37;1.10;;;;;;;24.75;30.62;99990.59;1649745;86;20243;-74
2021/05/23 08:41:47;;;;;;;3.42;1.30;;;;;;;25.16;29.94;99977.53;1648404;86;21131;-73
2021/05/23 08:44:18;;;;;;;2.58;1.27;;;;;;;25.28;31.13;99992.99;1655012;86;21166;-73
2021/05/23 08:46:46;;;;;;;3.17;1.15;;;;;;;25.42;29.95;100003.72;1612804;88;21139;-73
2021/05/23 08:49:21;;;;;;;2.00;1.20;;;;;;;25.40;31.21;100001.68;1656351;84;21131;-72
2021/05/23 08:51:48;;;;;;;3.65;1.22;;;;;;;25.20;31.47;100001.02;1684098;82;24490;-73
2021/05/23 08:54:16;;;;;;;2.17;1.40;;;;;;;24.96;31.57;100010.53;1696410;83;21067;-71
2021/05/23 08:56:44;;;;;;;4.47;1.52;;;;;;;24.79;32.83;100010.84;1689493;83;21579;-73
2021/05/23 08:59:11;;;;;;;2.52;1.37;;;;;;;24.75;31.48;100005.91;1686025;84;21194;-72
2021/05/23 09:01:38;;;;;;;2.72;1.30;;;;;;;24.82;31.25;100003.80;1714301;83;21151;-73
2021/05/23 09:04:08;;;;;;;2.45;1.30;;;;;;;24.95;31.37;100002.59;1701162;80;21087;-73
2021/05/23 09:07:01;;;;;;;1.20;1.00;;;;;;;25.03;30.22;100002.66;1673209;84;21799;-73
2021/05/23 09:09:28;;;;;;;2.05;1.22;;;;;;;24.82;31.31;99998.41;1697883;84;21148;-74
2021/05/23 09:12:01;;;;;;;2.33;1.20;;;;;;;24.53;31.01;100001.80;1660006;86;21092;-75
2021/05/23 09:14:36;;;;;;;1.22;1.10;;;;;;;24.53;30.83;99999.95;1687904;84;21083;-74
2021/05/23 09:17:06;;;;;;;2.22;1.60;;;;;;;24.70;30.99;99997.78;1692159;84;21062;-72
2021/05/23 09:19:43;;;;;;;3.83;1.32;;;;;;;24.64;30.29;99998.41;1673283;80;21103;-72
2021/05/23 09:22:15;;;;;;;4.50;1.30;;;;;;;24.70;28.68;99998.28;1711876;83;21165;-73
2021/05/23 09:24:53;;;;;;;3.27;1.20;;;;;;;24.80;30.09;99991.01;1707286;82;21084;-73
2021/05/23 09:27:23;;;;;;;9.70;1.20;;;;;;;24.99;28.36;99983.79;1720722;82;21039;-72
2021/05/23 09:30:08;;;;;;;3.33;1.50;;;;;;;24.97;28.54;99976.36;1673785;85;21093;-72
2021/05/23 09:32:39;;;;;;;3.98;1.30;;;;;;;24.66;29.34;99985.64;1685068;83;21088;-74
2021/05/23 09:35:06;;;;;;;;;;;;;;;24.82;28.44;99987.63;1641978;81;21577;-74
2021/05/23 09:37:33;;;;;;;8.00;1.15;;;;;;;24.97;28.27;99999.25;1648744;86;20278;-73
2021/05/23 09:40:02;;;;;;;4.42;1.72;;;;;;;24.96;27.76;99979.56;1648833;86;21137;-74
2021/05/23 09:42:30;;;;;;;2.83;1.30;;;;;;;25.15;28.36;99982.59;1695486;83;21142;-73
2021/05/23 09:44:58;;;;;;;3.17;1.10;;;;;;;25.61;26.91;99977.94;1645481;85;21095;-73
2021/05/23 09:47:25;;;;;;;2.80;1.20;;;;;;;25.74;25.99;99988.30;1665767;85;21132;-73
2021/05/23 09:49:56;;;;;;;2.77;1.05;;;;;;;25.46;25.85;99988.43;1650819;81;21611;-72
2021/05/23 09:52:33;;;;;;;4.67;1.00;;;;;;;24.99;26.69;99981.94;1621998;85;21742;-72
2021/05/23 09:55:03;;;;;;;3.70;1.07;;;;;;;24.78;27.36;99975.50;1622260;86;21097;-72
2021/05/23 09:57:30;;;;;;;3.17;1.10;;;;;;;24.61;27.75;99979.00;1605903;87;21729;-71
2021/05/23 10:00:08;;;;;;;2.67;0.98;;;;;;;24.54;28.42;99983.30;1604362;87;21107;-72
2021/05/23 10:05:46;;;;;;;2.15;1.02;;;;;;;25.46;27.12;99988.43;1632659;87;21141;-73
2021/05/23 10:08:14;;;;;;;5.20;0.80;;;;;;;25.46;26.82;99975.46;1687141;84;21114;-73
2021/05/23 10:10:42;;;;;;;1.45;1.00;;;;;;;25.44;25.90;99978.81;1665416;85;21093;-74
2021/05/23 10:13:10;;;;;;;3.27;1.22;;;;;;;25.33;26.45;99979.92;1665320;85;21186;-75
2021/05/23 10:15:40;;;;;;;4.53;1.20;;;;;;;25.34;27.02;99981.60;1669434;84;21145;-73
2021/05/23 10:18:14;;;;;;;3.02;0.90;;;;;;;25.65;26.77;99982.02;1667650;82;21098;-73
2021/05/23 10:20:43;;;;;;;2.70;1.00;;;;;;;25.95;25.89;99971.77;1696634;82;21162;-72
2021/05/23 10:23:21;;;;;;;3.47;1.32;;;;;;;26.05;25.67;99981.95;1698786;83;21068;-73
2021/05/23 10:25:51;;;;;;;7.45;1.10;;;;;;;25.92;25.22;99985.58;1687823;84;21277;-72
2021/05/23 10:28:19;;;;;;;1.98;0.82;;;;;;;25.60;25.72;99990.22;1705973;83;21084;-73
2021/05/23 10:30:53;;;;;;;5.25;1.10;;;;;;;25.23;25.26;99989.42;1704259;83;21166;-73
2021/05/23 10:33:20;;;;;;;3.08;1.02;;;;;;;25.22;26.21;99993.13;1695934;82;21103;-74
2021/05/23 10:35:51;;;;;;;3.80;0.95;;;;;;;25.26;25.87;99990.48;1660069;84;21128;-74
2021/05/23 10:38:22;;;;;;;2.05;0.90;;;;;;;25.28;25.74;99990.30;1659924;85;21126;-73
2021/05/23 10:40:59;;;;;;;2.95;0.90;;;;;;;25.42;25.82;99988.42;1655513;85;21137;-74
2021/05/23 10:43:28;;;;;;;2.65;0.95;;;;;;;25.80;24.73;99981.44;1661569;84;21142;-74
2021/05/23 10:46:14;;;;;;;2.33;0.90;;;;;;;25.87;24.09;99986.57;1659854;86;21090;-74
2021/05/23 10:48:57;;;;;;;2.25;0.93;;;;;;;25.77;24.53;99990.70;1663654;80;21614;-74
2021/05/23 10:51:25;;;;;;;2.08;1.05;;;;;;;25.90;24.83;99984.89;1657957;85;22155;-71
2021/05/23 10:53:52;;;;;;;3.20;1.02;;;;;;;25.75;25.05;99990.00;1681200;85;21567;-73
2021/05/23 10:56:31;;;;;;;2.00;0.90;;;;;;;25.41;26.58;99971.88;1665709;83;21071;-74
2021/05/23 10:59:04;;;;;;;2.55;0.70;;;;;;;25.30;25.05;99983.75;1654508;86;22302;-72
2021/05/23 11:01:44;;;;;;;3.85;1.37;;;;;;;25.18;26.00;99988.17;1658461;86;21036;-72
2021/05/23 11:04:16;;;;;;;4.20;0.82;;;;;;;25.40;25.70;99978.77;1663216;79;21167;-74
2021/05/23 11:06:45;;;;;;;20.20;1.52;;;;;;;25.62;25.09;99980.13;1661007;86;21152;-73
2021/05/23 11:09:20;;;;;;;3.42;1.10;;;;;;;25.19;25.94;99975.93;1630001;87;22545;-73
2021/05/23 11:11:48;;;;;;;5.05;1.10;;;;;;;24.80;25.53;99978.89;1627749;87;21119;-74
2021/05/23 11:14:24;;;;;;;4.87;1.62;;;;;;;24.81;25.95;99976.53;1643584;86;21112;-73
2021/05/23 11:16:54;;;;;;;6.58;1.25;;;;;;;25.01;27.59;99965.63;1637908;86;21127;-73
2021/05/23 11:19:22;;;;;;;4.17;1.00;;;;;;;25.30;25.54;99960.84;1637057;83;21128;-73
2021/05/23 11:21:54;;;;;;;3.98;1.25;;;;;;;25.12;25.36;99974.80;1672739;85;21071;-72
2021/05/23 11:24:26;;;;;;;3.20;1.20;;;;;;;25.01;26.94;99972.36;1675345;84;21111;-74
2021/05/23 11:26:53;;;;;;;3.47;1.10;;;;;;;25.27;25.67;99965.20;1670388;85;21135;-74
2021/05/23 11:29:20;;;;;;;3.75;1.07;;;;;;;25.59;24.76;99984.50;1665619;85;21103;-74
2021/05/23 11:31:50;;;;;;;3.10;1.15;;;;;;;25.71;25.62;99978.67;1654909;86;21137;-73
2021/05/23 11:34:27;;;;;;;3.77;1.42;;;;;;;25.61;24.83;99977.94;1657248;81;21108;-73
2021/05/23 11:36:52;;;;;;;3.27;1.12;;;;;;;25.38;27.11;99982.16;1676008;84;21065;-73
2021/05/23 11:39:21;;;;;;;3.83;1.25;;;;;;;25.46;25.42;99980.84;1648381;84;21148;-72
2021/05/23 11:41:49;;;;;;;2.40;1.20;;;;;;;25.60;25.76;99980.28;1670403;84;21742;-73
2021/05/23 11:44:17;;;;;;;3.67;1.22;;;;;;;25.56;26.88;99976.23;1662913;84;21125;-73
2021/05/23 11:46:50;;;;;;;2.75;1.12;;;;;;;25.29;25.82;99979.38;1664253;84;21086;-72
2021/05/23 11:49:20;;;;;;;3.37;1.12;;;;;;;25.35;26.83;99971.66;1665027;80;21136;-73